sensor_id;sensor_type;location;lat;lon;timestamp;pressure;altitude;pressure_sealevel;temperature;humidity
66560;BME280;53413;49.878;8.142;2023-06-26T00:00:48;99845.72;;;16.60;100.00
66560;BME280;53413;49.878;8.142;2023-06-26T00:03:13;99849.84;;;16.51;100.00
66560;BME280;53413;49.878;8.142;2023-06-26T00:05:43;99856.47;;;16.44;100.00
66560;BME280;53413;49.878;8.142;2023-06-26T00:08:08;99859.53;;;16.38;100.00
66560;BME280;53413;49.878;8.142;2023-06-26T00:10:34;99852.53;;;16.37;100.00
66560;BME280;53413;49.878;8.142;2023-06-26T00:12:59;99854.63;;;16.31;100.00
66560;BME280;53413;49.878;8.142;2023-06-26T00:15:25;99852.19;;;16.28;100.00
66560;BME280;53413;49.878;8.142;2023-06-26T00:17:50;99843.59;;;16.25;100.00
66560;BME280;53413;49.878;8.142;2023-06-26T00:20:16;99847.41;;;16.21;100.00
66560;BME280;53413;49.878;8.142;2023-06-26T00:22:42;99845.78;;;16.18;100.00
66560;BME280;53413;49.878;8.142;2023-06-26T00:25:08;99844.81;;;16.19;100.00
66560;BME280;53413;49.878;8.142;2023-06-26T00:27:33;99841.88;;;16.24;100.00
66560;BME280;53413;49.878;8.142;2023-06-26T00:29:58;99837.56;;;16.23;100.00
66560;BME280;53413;49.878;8.142;2023-06-26T00:32:24;99842.28;;;16.18;100.00
66560;BME280;53413;49.878;8.142;2023-06-26T00:34:49;99833.91;;;16.11;100.00
66560;BME280;53413;49.878;8.142;2023-06-26T00:37:15;99836.84;;;16.06;100.00
66560;BME280;53413;49.878;8.142;2023-06-26T00:39:40;99832.69;;;16.02;100.00
66560;BME280;53413;49.878;8.142;2023-06-26T00:42:06;99834.69;;;15.98;100.00
66560;BME280;53413;49.878;8.142;2023-06-26T00:44:31;99830.53;;;15.94;100.00
66560;BME280;53413;49.878;8.142;2023-06-26T00:46:56;99826.31;;;15.92;100.00
66560;BME280;53413;49.878;8.142;2023-06-26T00:49:22;99828.19;;;15.90;100.00
66560;BME280;53413;49.878;8.142;2023-06-26T00:51:48;99835.41;;;15.88;100.00
66560;BME280;53413;49.878;8.142;2023-06-26T00:54:14;99829.34;;;15.85;100.00
66560;BME280;53413;49.878;8.142;2023-06-26T00:56:45;99828.41;;;15.87;100.00
66560;BME280;53413;49.878;8.142;2023-06-26T00:59:10;99823.13;;;15.87;100.00
66560;BME280;53413;49.878;8.142;2023-06-26T01:01:36;99818.81;;;15.84;100.00
66560;BME280;53413;49.878;8.142;2023-06-26T01:04:01;99827.91;;;15.80;100.00
66560;BME280;53413;49.878;8.142;2023-06-26T01:06:27;99823.34;;;15.82;100.00
66560;BME280;53413;49.878;8.142;2023-06-26T01:08:57;99822.63;;;15.80;100.00
66560;BME280;53413;49.878;8.142;2023-06-26T01:11:23;99822.72;;;15.78;100.00
66560;BME280;53413;49.878;8.142;2023-06-26T01:13:49;99823.66;;;15.77;100.00
66560;BME280;53413;49.878;8.142;2023-06-26T01:16:16;99823.88;;;15.74;100.00
66560;BME280;53413;49.878;8.142;2023-06-26T01:18:44;99828.69;;;15.67;100.00
66560;BME280;53413;49.878;8.142;2023-06-26T01:21:11;99828.09;;;15.62;100.00
66560;BME280;53413;49.878;8.142;2023-06-26T01:24:00;99826.69;;;15.57;100.00
66560;BME280;53413;49.878;8.142;2023-06-26T01:26:31;99819.53;;;15.59;100.00
66560;BME280;53413;49.878;8.142;2023-06-26T01:29:01;99816.78;;;15.60;100.00
66560;BME280;53413;49.878;8.142;2023-06-26T01:31:28;99817.19;;;15.54;100.00
66560;BME280;53413;49.878;8.142;2023-06-26T01:33:57;99813.13;;;15.48;100.00
66560;BME280;53413;49.878;8.142;2023-06-26T01:36:23;99809.91;;;15.43;100.00
66560;BME280;53413;49.878;8.142;2023-06-26T01:38:48;99798.81;;;15.38;100.00
66560;BME280;53413;49.878;8.142;2023-06-26T01:41:14;99799.00;;;15.35;100.00
66560;BME280;53413;49.878;8.142;2023-06-26T01:49:24;99800.75;;;15.34;100.00
66560;BME280;53413;49.878;8.142;2023-06-26T01:54:47;99798.63;;;15.27;100.00
66560;BME280;53413;49.878;8.142;2023-06-26T01:57:14;99804.16;;;15.22;100.00
66560;BME280;53413;49.878;8.142;2023-06-26T01:59:44;99813.03;;;15.21;100.00
66560;BME280;53413;49.878;8.142;2023-06-26T02:02:10;99803.78;;;15.14;100.00
66560;BME280;53413;49.878;8.142;2023-06-26T02:04:36;99810.94;;;15.12;100.00
66560;BME280;53413;49.878;8.142;2023-06-26T02:07:02;99799.25;;;15.16;100.00
66560;BME280;53413;49.878;8.142;2023-06-26T02:09:28;99815.22;;;15.14;100.00
66560;BME280;53413;49.878;8.142;2023-06-26T02:11:53;99812.47;;;15.16;100.00
66560;BME280;53413;49.878;8.142;2023-06-26T02:14:18;99811.63;;;15.15;100.00
66560;BME280;53413;49.878;8.142;2023-06-26T02:16:43;99817.16;;;15.11;100.00
66560;BME280;53413;49.878;8.142;2023-06-26T02:19:09;99819.41;;;15.02;100.00
66560;BME280;53413;49.878;8.142;2023-06-26T02:21:34;99816.94;;;14.99;100.00
66560;BME280;53413;49.878;8.142;2023-06-26T02:24:01;99816.94;;;14.99;100.00
66560;BME280;53413;49.878;8.142;2023-06-26T02:26:26;99814.41;;;14.98;100.00
66560;BME280;53413;49.878;8.142;2023-06-26T02:28:51;99816.28;;;14.96;100.00
66560;BME280;53413;49.878;8.142;2023-06-26T02:31:17;99819.03;;;14.94;100.00
66560;BME280;53413;49.878;8.142;2023-06-26T02:33:42;99817.50;;;14.90;100.00
66560;BME280;53413;49.878;8.142;2023-06-26T02:36:08;99823.81;;;14.87;100.00
66560;BME280;53413;49.878;8.142;2023-06-26T02:38:33;99821.47;;;14.83;100.00
66560;BME280;53413;49.878;8.142;2023-06-26T02:40:58;99819.09;;;14.78;100.00
66560;BME280;53413;49.878;8.142;2023-06-26T02:43:24;99810.69;;;14.71;100.00
66560;BME280;53413;49.878;8.142;2023-06-26T02:45:49;99811.53;;;14.72;100.00
66560;BME280;53413;49.878;8.142;2023-06-26T02:48:14;99812.97;;;14.77;100.00
66560;BME280;53413;49.878;8.142;2023-06-26T02:50:40;99809.22;;;14.82;100.00
66560;BME280;53413;49.878;8.142;2023-06-26T02:53:05;99809.38;;;14.78;100.00
66560;BME280;53413;49.878;8.142;2023-06-26T02:55:30;99807.13;;;14.72;100.00
66560;BME280;53413;49.878;8.142;2023-06-26T02:57:56;99813.56;;;14.67;100.00
66560;BME280;53413;49.878;8.142;2023-06-26T03:00:21;99811.28;;;14.60;100.00
66560;BME280;53413;49.878;8.142;2023-06-26T03:02:46;99816.06;;;14.54;100.00
66560;BME280;53413;49.878;8.142;2023-06-26T03:05:12;99811.16;;;14.47;100.00
66560;BME280;53413;49.878;8.142;2023-06-26T03:07:38;99814.91;;;14.43;100.00
66560;BME280;53413;49.878;8.142;2023-06-26T03:10:03;99816.88;;;14.40;100.00
66560;BME280;53413;49.878;8.142;2023-06-26T03:12:30;99815.25;;;14.37;100.00
66560;BME280;53413;49.878;8.142;2023-06-26T03:14:56;99814.41;;;14.37;100.00
66560;BME280;53413;49.878;8.142;2023-06-26T03:17:21;99818.75;;;14.38;100.00
66560;BME280;53413;49.878;8.142;2023-06-26T03:19:46;99815.25;;;14.37;100.00
66560;BME280;53413;49.878;8.142;2023-06-26T03:22:12;99814.28;;;14.38;100.00
66560;BME280;53413;49.878;8.142;2023-06-26T03:24:37;99816.94;;;14.38;100.00
66560;BME280;53413;49.878;8.142;2023-06-26T03:27:02;99813.38;;;14.39;100.00
66560;BME280;53413;49.878;8.142;2023-06-26T03:29:28;99808.84;;;14.41;100.00
66560;BME280;53413;49.878;8.142;2023-06-26T03:31:55;99804.19;;;14.46;100.00
66560;BME280;53413;49.878;8.142;2023-06-26T03:34:20;99800.63;;;14.47;100.00
66560;BME280;53413;49.878;8.142;2023-06-26T03:36:46;99804.75;;;14.52;100.00
66560;BME280;53413;49.878;8.142;2023-06-26T03:39:11;99812.50;;;14.55;100.00
66560;BME280;53413;49.878;8.142;2023-06-26T03:41:37;99807.03;;;14.58;100.00
66560;BME280;53413;49.878;8.142;2023-06-26T03:44:03;99807.81;;;14.60;100.00
66560;BME280;53413;49.878;8.142;2023-06-26T03:46:29;99798.00;;;14.62;100.00
66560;BME280;53413;49.878;8.142;2023-06-26T03:48:54;99803.09;;;14.65;100.00
66560;BME280;53413;49.878;8.142;2023-06-26T03:51:19;99799.38;;;14.69;100.00
66560;BME280;53413;49.878;8.142;2023-06-26T03:53:45;99805.22;;;14.74;100.00
66560;BME280;53413;49.878;8.142;2023-06-26T03:56:10;99800.53;;;14.80;100.00
66560;BME280;53413;49.878;8.142;2023-06-26T03:58:36;99802.91;;;14.84;100.00
66560;BME280;53413;49.878;8.142;2023-06-26T04:01:01;99806.13;;;14.89;100.00
66560;BME280;53413;49.878;8.142;2023-06-26T04:03:26;99798.59;;;14.98;100.00
66560;BME280;53413;49.878;8.142;2023-06-26T04:05:52;99804.34;;;15.04;100.00
66560;BME280;53413;49.878;8.142;2023-06-26T04:08:17;99795.97;;;15.12;100.00
66560;BME280;53413;49.878;8.142;2023-06-26T04:10:44;99797.09;;;15.22;100.00
66560;BME280;53413;49.878;8.142;2023-06-26T04:13:10;99799.09;;;15.33;100.00
66560;BME280;53413;49.878;8.142;2023-06-26T04:15:36;99796.63;;;15.45;100.00
66560;BME280;53413;49.878;8.142;2023-06-26T04:18:01;99803.81;;;15.57;100.00
66560;BME280;53413;49.878;8.142;2023-06-26T04:20:26;99800.38;;;15.69;100.00
66560;BME280;53413;49.878;8.142;2023-06-26T04:22:52;99811.00;;;15.82;100.00
66560;BME280;53413;49.878;8.142;2023-06-26T04:25:17;99805.09;;;15.93;100.00
66560;BME280;53413;49.878;8.142;2023-06-26T04:27:42;99814.75;;;16.07;100.00
66560;BME280;53413;49.878;8.142;2023-06-26T04:30:09;99810.16;;;16.24;100.00
66560;BME280;53413;49.878;8.142;2023-06-26T04:32:34;99801.34;;;16.38;100.00
66560;BME280;53413;49.878;8.142;2023-06-26T04:35:00;99800.22;;;16.55;100.00
66560;BME280;53413;49.878;8.142;2023-06-26T04:37:25;99797.38;;;16.71;100.00
66560;BME280;53413;49.878;8.142;2023-06-26T04:39:51;99801.66;;;16.86;100.00
66560;BME280;53413;49.878;8.142;2023-06-26T04:42:19;99802.31;;;17.03;100.00
66560;BME280;53413;49.878;8.142;2023-06-26T04:44:46;99793.53;;;17.15;100.00
66560;BME280;53413;49.878;8.142;2023-06-26T04:47:12;99798.72;;;17.30;100.00
66560;BME280;53413;49.878;8.142;2023-06-26T04:49:43;99794.25;;;17.43;100.00
66560;BME280;53413;49.878;8.142;2023-06-26T04:52:11;99802.91;;;17.58;100.00
66560;BME280;53413;49.878;8.142;2023-06-26T04:54:38;99809.91;;;17.72;100.00
66560;BME280;53413;49.878;8.142;2023-06-26T04:57:04;99815.03;;;17.87;100.00
66560;BME280;53413;49.878;8.142;2023-06-26T04:59:33;99807.91;;;18.00;100.00
66560;BME280;53413;49.878;8.142;2023-06-26T05:02:01;99806.81;;;18.15;100.00
66560;BME280;53413;49.878;8.142;2023-06-26T05:04:26;99794.22;;;18.30;100.00
66560;BME280;53413;49.878;8.142;2023-06-26T05:06:52;99798.38;;;18.46;100.00
66560;BME280;53413;49.878;8.142;2023-06-26T05:09:17;99797.13;;;18.63;100.00
66560;BME280;53413;49.878;8.142;2023-06-26T05:11:42;99799.34;;;18.81;100.00
66560;BME280;53413;49.878;8.142;2023-06-26T05:14:08;99789.97;;;18.99;100.00
66560;BME280;53413;49.878;8.142;2023-06-26T05:16:34;99794.72;;;19.18;100.00
66560;BME280;53413;49.878;8.142;2023-06-26T05:19:00;99799.44;;;19.37;100.00
66560;BME280;53413;49.878;8.142;2023-06-26T05:21:25;99806.66;;;19.58;100.00
66560;BME280;53413;49.878;8.142;2023-06-26T05:23:52;99798.44;;;19.73;99.27
66560;BME280;53413;49.878;8.142;2023-06-26T05:26:20;99798.81;;;19.91;97.51
66560;BME280;53413;49.878;8.142;2023-06-26T05:28:46;99799.84;;;20.11;98.39
66560;BME280;53413;49.878;8.142;2023-06-26T05:31:14;99809.44;;;20.35;94.75
66560;BME280;53413;49.878;8.142;2023-06-26T05:33:43;99804.03;;;20.57;93.05
66560;BME280;53413;49.878;8.142;2023-06-26T05:36:09;99801.19;;;20.91;92.81
66560;BME280;53413;49.878;8.142;2023-06-26T05:38:34;99799.31;;;24.16;77.94
66560;BME280;53413;49.878;8.142;2023-06-26T05:41:00;99800.34;;;28.50;58.72
66560;BME280;53413;49.878;8.142;2023-06-26T05:43:26;99803.59;;;32.29;47.87
66560;BME280;53413;49.878;8.142;2023-06-26T05:45:51;99804.53;;;34.33;41.15
66560;BME280;53413;49.878;8.142;2023-06-26T05:48:16;99794.38;;;35.72;37.82
66560;BME280;53413;49.878;8.142;2023-06-26T05:50:43;99789.69;;;37.53;35.30
66560;BME280;53413;49.878;8.142;2023-06-26T05:53:09;99798.75;;;39.36;32.58
66560;BME280;53413;49.878;8.142;2023-06-26T05:55:35;99799.22;;;41.07;30.25
66560;BME280;53413;49.878;8.142;2023-06-26T05:58:02;99796.25;;;42.50;28.59
66560;BME280;53413;49.878;8.142;2023-06-26T06:00:28;99804.78;;;43.56;27.17
66560;BME280;53413;49.878;8.142;2023-06-26T06:02:54;99795.03;;;43.74;25.90
66560;BME280;53413;49.878;8.142;2023-06-26T06:05:20;99795.53;;;43.15;26.14
66560;BME280;53413;49.878;8.142;2023-06-26T06:07:46;99795.03;;;43.08;26.19
66560;BME280;53413;49.878;8.142;2023-06-26T06:10:12;99790.97;;;43.61;25.38
66560;BME280;53413;49.878;8.142;2023-06-26T06:12:37;99795.19;;;43.93;24.82
66560;BME280;53413;49.878;8.142;2023-06-26T06:15:03;99798.63;;;44.49;24.24
66560;BME280;53413;49.878;8.142;2023-06-26T06:17:28;99789.53;;;45.26;22.68
66560;BME280;53413;49.878;8.142;2023-06-26T06:19:53;99785.44;;;45.62;22.64
66560;BME280;53413;49.878;8.142;2023-06-26T06:22:19;99802.94;;;45.76;23.33
66560;BME280;53413;49.878;8.142;2023-06-26T06:24:44;99787.00;;;45.87;22.66
66560;BME280;53413;49.878;8.142;2023-06-26T06:27:10;99782.00;;;46.69;21.79
66560;BME280;53413;49.878;8.142;2023-06-26T06:29:35;99786.03;;;47.33;21.23
66560;BME280;53413;49.878;8.142;2023-06-26T06:32:00;99782.06;;;48.30;20.55
66560;BME280;53413;49.878;8.142;2023-06-26T06:34:26;99778.03;;;48.36;20.25
66560;BME280;53413;49.878;8.142;2023-06-26T06:36:51;99779.97;;;49.08;20.07
66560;BME280;53413;49.878;8.142;2023-06-26T06:39:16;99776.13;;;49.79;19.53
66560;BME280;53413;49.878;8.142;2023-06-26T06:41:42;99779.22;;;50.04;19.39
66560;BME280;53413;49.878;8.142;2023-06-26T06:44:07;99770.72;;;49.83;18.81
66560;BME280;53413;49.878;8.142;2023-06-26T06:46:33;99780.22;;;49.47;18.94
66560;BME280;53413;49.878;8.142;2023-06-26T06:48:58;99764.59;;;50.25;18.52
66560;BME280;53413;49.878;8.142;2023-06-26T06:51:24;99776.63;;;51.24;18.30
66560;BME280;53413;49.878;8.142;2023-06-26T06:53:49;99772.03;;;51.83;17.42
66560;BME280;53413;49.878;8.142;2023-06-26T06:56:15;99777.78;;;52.32;17.17
66560;BME280;53413;49.878;8.142;2023-06-26T06:58:40;99781.44;;;52.58;17.11
66560;BME280;53413;49.878;8.142;2023-06-26T07:01:08;99782.72;;;52.48;17.31
66560;BME280;53413;49.878;8.142;2023-06-26T07:03:34;99789.00;;;52.45;17.05
66560;BME280;53413;49.878;8.142;2023-06-26T07:05:59;99792.06;;;52.18;17.71
66560;BME280;53413;49.878;8.142;2023-06-26T07:08:24;99788.00;;;51.40;17.41
66560;BME280;53413;49.878;8.142;2023-06-26T07:10:50;99788.56;;;51.03;17.73
66560;BME280;53413;49.878;8.142;2023-06-26T07:13:15;99791.53;;;49.85;18.38
66560;BME280;53413;49.878;8.142;2023-06-26T07:15:40;99788.88;;;48.78;18.93
66560;BME280;53413;49.878;8.142;2023-06-26T07:18:06;99780.47;;;48.29;19.41
66560;BME280;53413;49.878;8.142;2023-06-26T07:20:31;99789.31;;;49.03;18.61
66560;BME280;53413;49.878;8.142;2023-06-26T07:22:57;99785.41;;;50.27;17.53
66560;BME280;53413;49.878;8.142;2023-06-26T07:25:22;99786.63;;;50.95;16.91
66560;BME280;53413;49.878;8.142;2023-06-26T07:27:47;99785.84;;;51.16;17.14
66560;BME280;53413;49.878;8.142;2023-06-26T07:30:13;99783.78;;;51.34;16.86
66560;BME280;53413;49.878;8.142;2023-06-26T07:32:38;99796.19;;;51.66;16.38
66560;BME280;53413;49.878;8.142;2023-06-26T07:35:06;99788.22;;;51.56;16.58
66560;BME280;53413;49.878;8.142;2023-06-26T07:37:31;99786.22;;;51.78;16.61
66560;BME280;53413;49.878;8.142;2023-06-26T07:39:57;99790.84;;;51.73;16.45
66560;BME280;53413;49.878;8.142;2023-06-26T07:42:22;99797.44;;;51.48;16.52
66560;BME280;53413;49.878;8.142;2023-06-26T07:44:48;99798.16;;;51.23;16.64
66560;BME280;53413;49.878;8.142;2023-06-26T07:47:14;99797.44;;;51.26;16.94
66560;BME280;53413;49.878;8.142;2023-06-26T07:49:40;99797.59;;;51.30;17.06
66560;BME280;53413;49.878;8.142;2023-06-26T07:52:06;99800.69;;;49.95;17.46
66560;BME280;53413;49.878;8.142;2023-06-26T07:54:32;99816.50;;;48.75;18.38
66560;BME280;53413;49.878;8.142;2023-06-26T07:56:59;99812.28;;;50.05;18.16
66560;BME280;53413;49.878;8.142;2023-06-26T07:59:27;99800.84;;;51.32;16.88
66560;BME280;53413;49.878;8.142;2023-06-26T08:01:54;99802.19;;;52.11;16.25
66560;BME280;53413;49.878;8.142;2023-06-26T08:04:21;99803.00;;;50.10;17.46
66560;BME280;53413;49.878;8.142;2023-06-26T08:06:51;99807.53;;;48.46;18.76
66560;BME280;53413;49.878;8.142;2023-06-26T08:09:18;99807.25;;;49.90;18.25
66560;BME280;53413;49.878;8.142;2023-06-26T08:11:44;99810.53;;;51.77;17.18
66560;BME280;53413;49.878;8.142;2023-06-26T08:14:10;99810.56;;;52.11;16.87
66560;BME280;53413;49.878;8.142;2023-06-26T08:16:40;99799.97;;;52.16;16.90
66560;BME280;53413;49.878;8.142;2023-06-26T08:19:06;99805.00;;;52.94;16.45
66560;BME280;53413;49.878;8.142;2023-06-26T08:21:31;99813.09;;;50.89;17.73
66560;BME280;53413;49.878;8.142;2023-06-26T08:23:57;99812.72;;;51.29;17.70
66560;BME280;53413;49.878;8.142;2023-06-26T08:26:22;99808.91;;;48.12;18.98
66560;BME280;53413;49.878;8.142;2023-06-26T08:28:48;99814.28;;;45.56;20.80
66560;BME280;53413;49.878;8.142;2023-06-26T08:31:14;99805.31;;;47.38;19.96
66560;BME280;53413;49.878;8.142;2023-06-26T08:33:40;99812.16;;;49.49;18.84
66560;BME280;53413;49.878;8.142;2023-06-26T08:36:05;99804.91;;;50.84;17.98
66560;BME280;53413;49.878;8.142;2023-06-26T08:38:30;99802.69;;;50.98;17.82
66560;BME280;53413;49.878;8.142;2023-06-26T08:40:56;99800.75;;;52.04;17.28
66560;BME280;53413;49.878;8.142;2023-06-26T08:43:21;99805.34;;;52.55;16.85
66560;BME280;53413;49.878;8.142;2023-06-26T08:45:47;99812.81;;;53.01;17.00
66560;BME280;53413;49.878;8.142;2023-06-26T08:48:16;99811.13;;;50.33;18.20
66560;BME280;53413;49.878;8.142;2023-06-26T08:50:43;99814.72;;;51.20;17.64
66560;BME280;53413;49.878;8.142;2023-06-26T08:53:29;99813.38;;;52.11;17.30
66560;BME280;53413;49.878;8.142;2023-06-26T08:55:57;99806.75;;;52.99;16.75
66560;BME280;53413;49.878;8.142;2023-06-26T08:58:23;99806.84;;;53.15;16.80
66560;BME280;53413;49.878;8.142;2023-06-26T09:00:49;99803.19;;;53.39;16.61
66560;BME280;53413;49.878;8.142;2023-06-26T09:03:15;99813.56;;;53.92;16.15
66560;BME280;53413;49.878;8.142;2023-06-26T09:05:41;99812.19;;;54.30;15.99
66560;BME280;53413;49.878;8.142;2023-06-26T09:08:07;99816.44;;;54.56;15.72
66560;BME280;53413;49.878;8.142;2023-06-26T09:10:32;99813.50;;;54.20;15.68
66560;BME280;53413;49.878;8.142;2023-06-26T09:12:58;99812.31;;;53.77;16.11
66560;BME280;53413;49.878;8.142;2023-06-26T09:15:26;99804.97;;;54.61;15.99
66560;BME280;53413;49.878;8.142;2023-06-26T09:17:56;99813.31;;;55.25;15.43
66560;BME280;53413;49.878;8.142;2023-06-26T09:20:22;99824.25;;;55.50;15.07
66560;BME280;53413;49.878;8.142;2023-06-26T09:22:48;99824.16;;;54.91;15.55
66560;BME280;53413;49.878;8.142;2023-06-26T09:25:13;99824.38;;;53.52;16.26
66560;BME280;53413;49.878;8.142;2023-06-26T09:27:39;99817.38;;;50.77;17.95
66560;BME280;53413;49.878;8.142;2023-06-26T09:30:05;99813.78;;;48.06;19.76
66560;BME280;53413;49.878;8.142;2023-06-26T09:32:37;99819.28;;;46.63;21.43
66560;BME280;53413;49.878;8.142;2023-06-26T09:35:03;99810.78;;;46.07;21.16
66560;BME280;53413;49.878;8.142;2023-06-26T09:37:29;99819.56;;;43.75;23.51
66560;BME280;53413;49.878;8.142;2023-06-26T09:39:55;99818.53;;;42.59;24.57
66560;BME280;53413;49.878;8.142;2023-06-26T09:42:21;99821.75;;;43.18;23.95
66560;BME280;53413;49.878;8.142;2023-06-26T09:44:49;99824.22;;;44.89;21.90
66560;BME280;53413;49.878;8.142;2023-06-26T09:47:17;99820.31;;;46.34;21.28
66560;BME280;53413;49.878;8.142;2023-06-26T09:49:43;99840.88;;;47.50;21.10
66560;BME280;53413;49.878;8.142;2023-06-26T09:52:09;99833.66;;;47.63;20.64
66560;BME280;53413;49.878;8.142;2023-06-26T09:54:35;99832.44;;;47.55;20.58
66560;BME280;53413;49.878;8.142;2023-06-26T09:57:10;99828.50;;;46.72;21.08
66560;BME280;53413;49.878;8.142;2023-06-26T09:59:36;99833.63;;;47.26;20.70
66560;BME280;53413;49.878;8.142;2023-06-26T10:02:02;99830.66;;;48.10;19.81
66560;BME280;53413;49.878;8.142;2023-06-26T10:04:27;99824.44;;;47.12;20.62
66560;BME280;53413;49.878;8.142;2023-06-26T10:06:55;99814.31;;;46.46;21.02
66560;BME280;53413;49.878;8.142;2023-06-26T10:09:22;99813.59;;;45.45;22.08
66560;BME280;53413;49.878;8.142;2023-06-26T10:12:01;99822.00;;;44.91;22.43
66560;BME280;53413;49.878;8.142;2023-06-26T10:14:31;99814.91;;;45.04;22.60
66560;BME280;53413;49.878;8.142;2023-06-26T10:16:58;99817.09;;;45.31;22.26
66560;BME280;53413;49.878;8.142;2023-06-26T10:19:25;99812.38;;;45.08;21.95
66560;BME280;53413;49.878;8.142;2023-06-26T10:21:53;99821.69;;;43.94;23.94
66560;BME280;53413;49.878;8.142;2023-06-26T10:24:20;99806.16;;;42.15;24.71
66560;BME280;53413;49.878;8.142;2023-06-26T10:26:49;99812.09;;;40.31;26.99
66560;BME280;53413;49.878;8.142;2023-06-26T10:29:16;99809.69;;;38.97;27.67
66560;BME280;53413;49.878;8.142;2023-06-26T10:31:49;99794.59;;;37.80;29.92
66560;BME280;53413;49.878;8.142;2023-06-26T10:34:15;99800.94;;;36.92;30.10
66560;BME280;53413;49.878;8.142;2023-06-26T10:36:41;99808.56;;;36.35;31.57
66560;BME280;53413;49.878;8.142;2023-06-26T10:39:06;99819.72;;;35.73;31.63
66560;BME280;53413;49.878;8.142;2023-06-26T10:41:39;99824.25;;;35.23;32.12
66560;BME280;53413;49.878;8.142;2023-06-26T10:44:08;99816.38;;;34.96;32.93
66560;BME280;53413;49.878;8.142;2023-06-26T10:46:56;99809.81;;;34.79;32.76
66560;BME280;53413;49.878;8.142;2023-06-26T10:49:29;99813.66;;;34.46;33.50
66560;BME280;53413;49.878;8.142;2023-06-26T10:51:55;99815.88;;;34.23;34.42
66560;BME280;53413;49.878;8.142;2023-06-26T10:54:28;99815.69;;;33.80;34.46
66560;BME280;53413;49.878;8.142;2023-06-26T10:56:57;99825.34;;;33.62;34.67
66560;BME280;53413;49.878;8.142;2023-06-26T10:59:27;99828.72;;;33.57;34.27
66560;BME280;53413;49.878;8.142;2023-06-26T11:04:55;99824.81;;;33.46;34.33
66560;BME280;53413;49.878;8.142;2023-06-26T11:07:26;99813.34;;;33.31;34.01
66560;BME280;53413;49.878;8.142;2023-06-26T11:10:01;99834.06;;;33.05;34.23
66560;BME280;53413;49.878;8.142;2023-06-26T11:12:40;99822.59;;;32.76;34.15
66560;BME280;53413;49.878;8.142;2023-06-26T11:15:15;99825.94;;;32.92;34.62
66560;BME280;53413;49.878;8.142;2023-06-26T11:17:42;99821.34;;;32.92;34.02
66560;BME280;53413;49.878;8.142;2023-06-26T11:20:09;99826.34;;;33.02;34.36
66560;BME280;53413;49.878;8.142;2023-06-26T11:22:45;99833.25;;;33.05;33.55
66560;BME280;53413;49.878;8.142;2023-06-26T11:25:10;99830.25;;;33.26;33.86
66560;BME280;53413;49.878;8.142;2023-06-26T11:27:43;99836.34;;;33.35;33.43
66560;BME280;53413;49.878;8.142;2023-06-26T11:30:10;99840.88;;;33.48;33.28
66560;BME280;53413;49.878;8.142;2023-06-26T11:32:39;99832.72;;;33.55;33.61
66560;BME280;53413;49.878;8.142;2023-06-26T11:35:05;99839.94;;;33.74;32.72
66560;BME280;53413;49.878;8.142;2023-06-26T11:37:32;99837.38;;;33.86;32.69
66560;BME280;53413;49.878;8.142;2023-06-26T11:39:57;99838.66;;;33.84;31.70
66560;BME280;53413;49.878;8.142;2023-06-26T11:42:23;99841.81;;;33.81;32.48
66560;BME280;53413;49.878;8.142;2023-06-26T11:44:49;99843.28;;;33.76;31.99
66560;BME280;53413;49.878;8.142;2023-06-26T11:47:19;99848.50;;;33.85;31.91
66560;BME280;53413;49.878;8.142;2023-06-26T11:49:47;99852.41;;;33.96;32.08
66560;BME280;53413;49.878;8.142;2023-06-26T11:52:13;99860.81;;;33.94;32.30
66560;BME280;53413;49.878;8.142;2023-06-26T11:54:40;99851.16;;;33.98;32.10
66560;BME280;53413;49.878;8.142;2023-06-26T11:57:05;99853.94;;;34.23;32.17
66560;BME280;53413;49.878;8.142;2023-06-26T11:59:35;99855.63;;;34.25;30.88
66560;BME280;53413;49.878;8.142;2023-06-26T12:02:05;99869.88;;;34.20;30.75
66560;BME280;53413;49.878;8.142;2023-06-26T12:04:32;99859.44;;;34.17;30.53
66560;BME280;53413;49.878;8.142;2023-06-26T12:06:57;99863.16;;;34.22;30.69
66560;BME280;53413;49.878;8.142;2023-06-26T12:09:24;99859.50;;;34.03;31.34
66560;BME280;53413;49.878;8.142;2023-06-26T12:11:53;99851.16;;;33.98;30.02
66560;BME280;53413;49.878;8.142;2023-06-26T12:14:22;99855.81;;;33.77;30.26
66560;BME280;53413;49.878;8.142;2023-06-26T12:16:48;99855.81;;;33.77;29.99
66560;BME280;53413;49.878;8.142;2023-06-26T12:19:14;99867.97;;;33.75;29.59
66560;BME280;53413;49.878;8.142;2023-06-26T12:24:19;99865.50;;;33.67;29.69
66560;BME280;53413;49.878;8.142;2023-06-26T12:26:47;99861.09;;;33.66;29.23
66560;BME280;53413;49.878;8.142;2023-06-26T12:29:17;99860.06;;;33.67;28.88
66560;BME280;53413;49.878;8.142;2023-06-26T12:31:44;99861.09;;;33.72;26.85
66560;BME280;53413;49.878;8.142;2023-06-26T12:34:10;99857.09;;;33.75;27.41
66560;BME280;53413;49.878;8.142;2023-06-26T12:36:41;99868.44;;;33.52;27.19
66560;BME280;53413;49.878;8.142;2023-06-26T12:39:09;99860.97;;;33.40;26.08
66560;BME280;53413;49.878;8.142;2023-06-26T12:41:35;99854.66;;;33.53;26.78
66560;BME280;53413;49.878;8.142;2023-06-26T12:44:00;99868.41;;;33.65;25.60
66560;BME280;53413;49.878;8.142;2023-06-26T12:46:35;99862.59;;;33.55;25.82
66560;BME280;53413;49.878;8.142;2023-06-26T12:49:00;99860.13;;;33.46;26.57
66560;BME280;53413;49.878;8.142;2023-06-26T12:51:25;99869.50;;;33.51;26.84
66560;BME280;53413;49.878;8.142;2023-06-26T12:53:52;99873.47;;;33.55;29.22
66560;BME280;53413;49.878;8.142;2023-06-26T12:56:18;99864.88;;;33.65;29.84
66560;BME280;53413;49.878;8.142;2023-06-26T12:58:45;99867.13;;;33.74;28.67
66560;BME280;53413;49.878;8.142;2023-06-26T13:01:10;99860.84;;;33.81;28.73
66560;BME280;53413;49.878;8.142;2023-06-26T13:03:40;99870.06;;;33.66;27.82
66560;BME280;53413;49.878;8.142;2023-06-26T13:06:05;99872.66;;;33.54;28.68